createdAt,value
2017-11-03T00:01:15.247Z,11.80
2017-11-03T00:03:42.754Z,11.80
2017-11-03T00:06:11.048Z,11.90
2017-11-03T00:08:38.568Z,11.90
2017-11-03T00:11:06.192Z,11.90
2017-11-03T00:13:33.700Z,11.80
2017-11-03T00:16:01.227Z,11.80
2017-11-03T00:18:28.734Z,11.80
2017-11-03T00:20:57.023Z,11.90
2017-11-03T00:23:24.531Z,11.80
2017-11-03T00:25:52.059Z,11.90
2017-11-03T00:28:19.563Z,12.00
2017-11-03T00:30:47.155Z,12.00
2017-11-03T00:33:14.663Z,12.00
2017-11-03T00:35:42.190Z,12.00
2017-11-03T00:38:09.700Z,12.00
2017-11-03T00:40:37.227Z,11.90
2017-11-03T00:43:05.099Z,11.90
2017-11-03T00:45:32.623Z,11.90
2017-11-03T00:48:00.136Z,11.90
2017-11-03T00:50:27.655Z,11.90
2017-11-03T00:52:55.211Z,11.90
2017-11-03T00:55:22.725Z,12.00
2017-11-03T00:57:51.032Z,12.00
2017-11-03T01:00:18.587Z,12.00
2017-11-03T01:02:46.126Z,12.00
2017-11-03T01:05:14.400Z,12.00
2017-11-03T01:07:42.794Z,11.90
2017-11-03T01:10:10.302Z,12.00
2017-11-03T01:12:37.827Z,11.90
2017-11-03T01:15:05.372Z,11.80
2017-11-03T01:17:32.927Z,11.80
2017-11-03T01:20:00.440Z,11.80
2017-11-03T01:22:27.965Z,11.70
2017-11-03T01:24:55.487Z,11.80
2017-11-03T01:27:23.791Z,11.70
2017-11-03T01:29:51.294Z,11.70
2017-11-03T01:32:18.819Z,11.70
2017-11-03T01:34:46.327Z,11.70
2017-11-03T01:37:14.619Z,11.60
2017-11-03T01:39:42.895Z,11.60
2017-11-03T01:42:11.185Z,11.50
2017-11-03T01:44:38.693Z,11.40
2017-11-03T01:47:06.243Z,11.50
2017-11-03T01:49:33.747Z,11.40
2017-11-03T01:52:01.260Z,11.40
2017-11-03T01:54:28.783Z,11.40
2017-11-03T01:56:56.288Z,11.30
2017-11-03T01:59:23.818Z,11.30
2017-11-03T02:01:51.348Z,11.30
2017-11-03T02:04:18.875Z,11.30
2017-11-03T02:06:47.198Z,11.30
2017-11-03T02:09:14.740Z,11.30
2017-11-03T02:11:42.247Z,11.40
2017-11-03T02:14:09.772Z,11.40
2017-11-03T02:16:37.286Z,11.40
2017-11-03T02:19:05.579Z,11.40
2017-11-03T02:21:33.877Z,11.40
2017-11-03T02:24:01.423Z,11.40
2017-11-03T02:26:29.082Z,11.40
2017-11-03T02:28:56.647Z,11.40
2017-11-03T02:31:24.207Z,11.40
2017-11-03T02:33:52.509Z,11.40
2017-11-03T02:36:20.018Z,11.40
2017-11-03T02:38:48.312Z,11.40
2017-11-03T02:41:15.818Z,11.40
2017-11-03T02:43:44.072Z,11.40
2017-11-03T02:46:11.579Z,11.50
2017-11-03T02:48:39.920Z,11.50
2017-11-03T02:51:07.750Z,11.50
2017-11-03T02:53:35.259Z,11.50
2017-11-03T02:56:02.788Z,11.40
2017-11-03T02:58:30.298Z,11.50
2017-11-03T03:00:58.583Z,11.50
2017-11-03T03:03:26.864Z,11.50
2017-11-03T03:05:55.572Z,11.60
2017-11-03T03:08:23.123Z,11.60
2017-11-03T03:10:50.647Z,11.50
2017-11-03T03:13:18.923Z,11.50
2017-11-03T03:15:47.224Z,11.50
2017-11-03T03:18:14.734Z,11.50
2017-11-03T03:20:42.264Z,11.50
2017-11-03T03:23:09.771Z,11.50
2017-11-03T03:25:38.063Z,11.50
2017-11-03T03:28:06.334Z,11.50
2017-11-03T03:30:34.623Z,11.50
2017-11-03T03:33:02.127Z,11.40
2017-11-03T03:35:29.650Z,11.40
2017-11-03T03:37:57.160Z,11.40
2017-11-03T03:40:24.776Z,11.40
2017-11-03T03:42:52.278Z,11.40
2017-11-03T03:45:19.798Z,11.40
2017-11-03T03:47:47.307Z,11.30
2017-11-03T03:50:14.842Z,11.40
2017-11-03T03:52:42.361Z,11.30
2017-11-03T03:55:09.906Z,11.40
2017-11-03T03:57:37.411Z,11.40
2017-11-03T04:00:04.953Z,11.40
2017-11-03T04:02:32.458Z,11.40
2017-11-03T04:05:00.733Z,11.40
2017-11-03T04:07:29.022Z,11.40
2017-11-03T04:09:57.292Z,11.40
2017-11-03T04:12:25.583Z,11.40
2017-11-03T04:14:53.150Z,11.40
2017-11-03T04:17:20.670Z,11.40
2017-11-03T04:19:48.176Z,11.40
2017-11-03T04:22:15.694Z,11.40
2017-11-03T04:24:43.999Z,11.50
2017-11-03T04:27:11.518Z,11.40
2017-11-03T04:29:39.024Z,11.40
2017-11-03T04:32:06.547Z,11.40
2017-11-03T04:34:34.819Z,11.40
2017-11-03T04:37:03.124Z,11.40
2017-11-03T04:39:30.626Z,11.40
2017-11-03T04:41:58.243Z,11.40
2017-11-03T04:44:25.799Z,11.40
2017-11-03T04:46:53.311Z,11.40
2017-11-03T04:49:20.840Z,11.40
2017-11-03T04:51:48.351Z,11.40
2017-11-03T04:54:16.634Z,11.40
2017-11-03T04:56:44.905Z,11.40
2017-11-03T04:59:13.196Z,11.40
2017-11-03T05:01:40.763Z,11.40
2017-11-03T05:04:08.319Z,11.40
2017-11-03T05:06:35.827Z,11.40
2017-11-03T05:09:03.359Z,11.40
2017-11-03T05:11:30.895Z,11.40
2017-11-03T05:13:58.419Z,11.40
2017-11-03T05:16:26.011Z,11.40
2017-11-03T05:18:53.570Z,11.30
2017-11-03T05:21:21.079Z,11.30
2017-11-03T05:23:48.610Z,11.30
2017-11-03T05:26:16.132Z,11.20
2017-11-03T05:28:44.435Z,11.20
2017-11-03T05:31:11.943Z,11.20
2017-11-03T05:33:39.474Z,11.10
2017-11-03T05:36:06.997Z,11.20
2017-11-03T05:38:34.519Z,11.20
2017-11-03T05:41:02.025Z,11.20
2017-11-03T05:43:29.548Z,11.20
2017-11-03T05:45:57.818Z,11.20
2017-11-03T05:48:26.223Z,11.10
2017-11-03T05:50:53.737Z,11.20
2017-11-03T05:53:21.268Z,11.20
2017-11-03T05:55:48.775Z,11.20
2017-11-03T05:58:17.068Z,11.20
2017-11-03T06:00:44.579Z,11.20
2017-11-03T06:03:12.083Z,11.20
2017-11-03T06:05:39.607Z,11.00
2017-11-03T06:08:07.207Z,11.00
2017-11-03T06:10:34.731Z,11.00
2017-11-03T06:13:02.238Z,10.90
2017-11-03T06:15:29.767Z,10.90
2017-11-03T06:17:58.040Z,10.80
2017-11-03T06:20:26.331Z,10.90
2017-11-03T06:22:53.852Z,10.80
2017-11-03T06:25:21.467Z,10.90
2017-11-03T06:27:48.979Z,11.00
2017-11-03T06:30:16.512Z,11.00
2017-11-03T06:32:44.023Z,11.00
2017-11-03T06:35:11.546Z,11.10
2017-11-03T06:37:39.055Z,11.10
2017-11-03T06:40:06.807Z,11.00
2017-11-03T06:42:34.538Z,10.90
2017-11-03T06:45:02.144Z,11.00
2017-11-03T06:47:29.671Z,11.10
2017-11-03T06:49:57.942Z,11.10
2017-11-03T06:52:26.238Z,11.10
2017-11-03T06:54:53.766Z,11.10
2017-11-03T06:57:21.287Z,11.20
2017-11-03T06:59:48.839Z,11.20
2017-11-03T07:02:16.374Z,11.30
2017-11-03T07:04:43.900Z,11.30
2017-11-03T07:07:11.490Z,11.40
2017-11-03T07:09:39.000Z,11.40
2017-11-03T07:12:08.962Z,11.40
2017-11-03T07:14:36.472Z,11.40
2017-11-03T07:17:04.626Z,11.40
2017-11-03T07:19:32.134Z,11.40
2017-11-03T07:22:00.428Z,11.40
2017-11-03T07:24:27.996Z,11.40
2017-11-03T07:26:55.523Z,11.40
2017-11-03T07:29:23.795Z,11.40
2017-11-03T07:31:52.087Z,11.40
2017-11-03T07:34:20.371Z,11.40
2017-11-03T07:36:47.931Z,11.40
2017-11-03T07:39:15.492Z,11.50
2017-11-03T07:41:43.045Z,11.50
2017-11-03T07:44:10.551Z,11.50
2017-11-03T07:46:38.166Z,11.50
2017-11-03T07:49:05.671Z,11.60
2017-11-03T07:51:33.211Z,11.60
2017-11-03T07:54:00.737Z,11.70
2017-11-03T07:56:28.302Z,11.70
2017-11-03T07:58:55.811Z,11.70
2017-11-03T08:01:23.420Z,11.80
2017-11-03T08:03:50.953Z,11.80
2017-11-03T08:06:19.232Z,11.80
2017-11-03T08:08:47.522Z,11.80
2017-11-03T08:11:15.795Z,11.80
2017-11-03T08:13:44.087Z,11.80
2017-11-03T08:16:11.599Z,11.70
2017-11-03T08:18:39.122Z,11.80
2017-11-03T08:21:06.664Z,11.80
2017-11-03T08:23:34.200Z,11.80
2017-11-03T08:26:01.732Z,11.70
2017-11-03T08:28:29.336Z,11.80
2017-11-03T08:30:56.908Z,11.80
2017-11-03T08:33:24.430Z,11.80
2017-11-03T08:35:52.707Z,12.00
2017-11-03T08:38:21.211Z,12.00
2017-11-03T08:40:48.715Z,12.00
2017-11-03T08:43:16.235Z,12.10
2017-11-03T08:45:43.743Z,12.10
2017-11-03T08:48:11.326Z,12.20
2017-11-03T08:50:40.267Z,12.30
2017-11-03T08:53:07.777Z,12.30
2017-11-03T08:55:36.068Z,12.40
2017-11-03T08:58:03.574Z,12.40
2017-11-03T09:00:31.611Z,12.40
2017-11-03T09:02:59.123Z,12.40
2017-11-03T09:05:26.715Z,12.50
2017-11-03T09:07:54.230Z,12.50
2017-11-03T09:10:21.750Z,12.50
2017-11-03T09:12:49.255Z,12.50
2017-11-03T09:15:16.846Z,12.40
2017-11-03T09:17:44.362Z,12.40
2017-11-03T09:20:11.967Z,12.50
2017-11-03T09:22:39.479Z,12.50
2017-11-03T09:25:07.002Z,12.50
2017-11-03T09:27:34.510Z,12.60
2017-11-03T09:30:02.820Z,12.60
2017-11-03T09:32:30.330Z,12.60
2017-11-03T09:34:57.856Z,12.70
2017-11-03T09:37:25.366Z,12.70
2017-11-03T09:39:53.655Z,12.80
2017-11-03T09:42:21.926Z,12.80
2017-11-03T09:44:50.218Z,12.80
2017-11-03T09:47:17.728Z,12.80
2017-11-03T09:49:45.331Z,12.80
2017-11-03T09:52:12.898Z,12.90
2017-11-03T09:54:40.428Z,13.00
2017-11-03T09:57:08.703Z,13.00
2017-11-03T09:59:37.103Z,13.10
2017-11-03T10:02:05.017Z,13.10
2017-11-03T10:04:32.530Z,13.10
2017-11-03T10:07:00.051Z,13.10
2017-11-03T10:09:27.647Z,13.10
2017-11-03T10:11:55.178Z,13.10
2017-11-03T10:14:23.452Z,13.30
2017-11-03T10:16:50.980Z,13.20
2017-11-03T10:19:18.488Z,13.30
2017-11-03T10:21:46.027Z,13.30
2017-11-03T10:24:14.349Z,13.40
2017-11-03T10:26:41.875Z,13.40
2017-11-03T10:29:10.151Z,13.50
2017-11-03T10:31:38.443Z,13.50
2017-11-03T10:34:05.949Z,13.50
2017-11-03T10:36:33.565Z,13.60
2017-11-03T10:39:01.080Z,13.60
2017-11-03T10:41:28.632Z,13.60
2017-11-03T10:43:56.139Z,13.70
2017-11-03T10:46:23.683Z,13.70
2017-11-03T10:48:51.987Z,13.80
2017-11-03T10:51:19.527Z,13.80
2017-11-03T10:53:47.051Z,13.80
2017-11-03T10:56:14.555Z,13.90
2017-11-03T10:58:42.117Z,13.90
2017-11-03T11:01:09.666Z,13.90
2017-11-03T11:03:37.191Z,14.00
2017-11-03T11:06:05.472Z,14.00
2017-11-03T11:08:33.771Z,14.00
2017-11-03T11:11:01.279Z,14.00
2017-11-03T11:13:28.803Z,14.00
2017-11-03T11:15:56.351Z,14.10
2017-11-03T11:18:23.871Z,14.10
2017-11-03T11:20:51.489Z,14.20
2017-11-03T11:23:19.010Z,14.30
2017-11-03T11:25:47.298Z,14.30
2017-11-03T11:28:14.823Z,14.30
2017-11-03T11:30:42.335Z,14.30
2017-11-03T11:33:09.854Z,14.30
2017-11-03T11:35:38.151Z,14.40
2017-11-03T11:38:05.691Z,14.40
2017-11-03T11:40:33.987Z,14.40
2017-11-03T11:43:01.511Z,14.50
2017-11-03T11:45:29.028Z,14.40
2017-11-03T11:47:56.575Z,14.50
2017-11-03T11:50:24.103Z,14.50
2017-11-03T11:52:52.394Z,14.50
2017-11-03T11:55:19.919Z,14.50
2017-11-03T11:57:47.429Z,14.50
2017-11-03T12:00:14.993Z,14.60
2017-11-03T12:02:42.866Z,14.60
2017-11-03T12:05:10.395Z,14.60
2017-11-03T12:07:37.907Z,14.70
2017-11-03T12:10:05.436Z,14.70
2017-11-03T12:12:32.948Z,14.70
2017-11-03T12:15:01.243Z,14.70
2017-11-03T12:17:28.817Z,14.70
2017-11-03T12:19:56.343Z,14.60
2017-11-03T12:22:24.639Z,14.70
2017-11-03T12:24:52.163Z,14.60
2017-11-03T12:27:19.670Z,14.60
2017-11-03T12:29:47.199Z,14.70
2017-11-03T12:32:15.478Z,14.70
2017-11-03T12:34:43.052Z,14.70
2017-11-03T12:37:10.563Z,14.70
2017-11-03T12:39:38.159Z,14.70
2017-11-03T12:42:05.669Z,14.70
2017-11-03T12:44:33.199Z,14.70
2017-11-03T12:47:00.708Z,14.70
2017-11-03T12:49:28.216Z,14.70
2017-11-03T12:51:55.746Z,14.80
2017-11-03T12:54:24.044Z,14.80
2017-11-03T12:56:51.612Z,14.80
2017-11-03T12:59:19.128Z,14.80
2017-11-03T13:01:47.420Z,14.80
2017-11-03T13:04:14.939Z,14.70
2017-11-03T13:06:42.476Z,14.80
2017-11-03T13:09:09.987Z,14.80
2017-11-03T13:11:38.379Z,14.80
2017-11-03T13:14:05.887Z,14.80
2017-11-03T13:16:33.410Z,14.90
2017-11-03T13:19:00.911Z,14.90
2017-11-03T13:21:28.443Z,14.90
2017-11-03T13:23:55.946Z,14.90
2017-11-03T13:26:24.246Z,14.90
2017-11-03T13:28:51.752Z,14.90
2017-11-03T13:31:19.373Z,14.90
2017-11-03T13:33:46.884Z,14.90
2017-11-03T13:36:14.392Z,14.90
2017-11-03T13:38:41.918Z,14.90
2017-11-03T13:41:10.187Z,15.00
2017-11-03T13:43:38.600Z,15.00
2017-11-03T13:46:06.160Z,15.00
2017-11-03T13:48:33.679Z,15.00
2017-11-03T13:51:01.982Z,15.00
2017-11-03T13:53:29.507Z,15.00
2017-11-03T13:55:57.099Z,15.00
2017-11-03T13:58:24.618Z,15.10
2017-11-03T14:00:52.119Z,15.10
2017-11-03T14:03:19.643Z,15.10
2017-11-03T14:05:47.160Z,15.00
2017-11-03T14:08:14.692Z,15.00
2017-11-03T14:10:42.202Z,15.00
2017-11-03T14:13:09.736Z,15.10
2017-11-03T14:15:37.252Z,15.00
2017-11-03T14:18:05.647Z,15.00
2017-11-03T14:20:33.202Z,15.00
2017-11-03T14:23:00.763Z,15.10
2017-11-03T14:25:28.270Z,15.10
2017-11-03T14:27:55.779Z,15.00
2017-11-03T14:30:23.298Z,14.90
2017-11-03T14:32:50.826Z,14.90
2017-11-03T14:35:18.361Z,14.90
2017-11-03T14:37:46.330Z,14.80
2017-11-03T14:40:13.859Z,14.80
2017-11-03T14:42:42.147Z,14.70
2017-11-03T14:45:09.715Z,14.70
2017-11-03T14:47:37.271Z,14.70
2017-11-03T14:50:04.791Z,14.70
2017-11-03T14:52:32.296Z,14.70
2017-11-03T14:54:59.823Z,14.60
2017-11-03T14:57:28.102Z,14.50
2017-11-03T14:59:56.387Z,14.50
2017-11-03T15:02:24.663Z,14.50
2017-11-03T15:04:52.186Z,14.40
2017-11-03T15:07:19.744Z,14.40
2017-11-03T15:09:47.350Z,14.40
2017-11-03T15:12:14.859Z,14.40
2017-11-03T15:14:42.888Z,14.30
2017-11-03T15:17:10.398Z,14.30
2017-11-03T15:19:38.682Z,14.30
2017-11-03T15:22:06.190Z,14.30
2017-11-03T15:24:33.733Z,14.30
2017-11-03T15:27:01.292Z,14.20
2017-11-03T15:29:28.800Z,14.20
2017-11-03T15:31:56.333Z,14.20
2017-11-03T15:34:23.843Z,14.10
2017-11-03T15:36:52.134Z,14.10
2017-11-03T15:39:19.703Z,14.00
2017-11-03T15:41:47.231Z,14.00
2017-11-03T15:44:15.503Z,13.90
2017-11-03T15:46:43.795Z,13.90
2017-11-03T15:49:12.732Z,13.80
2017-11-03T15:51:40.256Z,13.80
2017-11-03T15:54:07.777Z,13.80
2017-11-03T15:56:35.303Z,13.70
2017-11-03T15:59:02.811Z,13.70
2017-11-03T16:01:31.107Z,13.50
2017-11-03T16:03:58.662Z,13.50
2017-11-03T16:06:26.211Z,13.50
2017-11-03T16:08:54.483Z,13.30
2017-11-03T16:11:22.754Z,13.20
2017-11-03T16:13:51.047Z,13.10
2017-11-03T16:16:18.615Z,13.10
2017-11-03T16:18:46.139Z,13.00
2017-11-03T16:21:13.647Z,13.00
2017-11-03T16:23:41.534Z,12.80
2017-11-03T16:26:09.043Z,12.80
2017-11-03T16:28:37.330Z,12.70
2017-11-03T16:31:04.837Z,12.60
2017-11-03T16:33:32.452Z,12.60
2017-11-03T16:35:59.959Z,12.50
2017-11-03T16:38:27.563Z,12.50
2017-11-03T16:40:55.075Z,12.50
2017-11-03T16:43:22.599Z,12.40
2017-11-03T16:45:50.104Z,12.20
2017-11-03T16:48:17.699Z,12.20
2017-11-03T16:50:45.600Z,12.20
2017-11-03T16:53:13.123Z,12.10
2017-11-03T16:55:40.626Z,12.10
2017-11-03T16:58:08.158Z,12.00
2017-11-03T17:00:35.664Z,12.00
2017-11-03T17:03:03.195Z,11.90
2017-11-03T17:05:30.703Z,11.80
2017-11-03T17:07:58.286Z,11.80
2017-11-03T17:10:25.791Z,11.70
2017-11-03T17:12:53.315Z,11.70
2017-11-03T17:15:20.851Z,11.60
2017-11-03T17:17:48.396Z,11.60
2017-11-03T17:20:16.668Z,11.50
2017-11-03T17:22:44.930Z,11.40
2017-11-03T17:25:13.218Z,11.40
2017-11-03T17:27:41.490Z,11.30
2017-11-03T17:30:09.778Z,11.20
2017-11-03T17:32:37.279Z,11.20
2017-11-03T17:35:05.314Z,11.20
2017-11-03T17:37:32.823Z,11.20
2017-11-03T17:40:00.346Z,11.10
2017-11-03T17:42:27.859Z,11.10
2017-11-03T17:44:56.151Z,11.00
2017-11-03T17:47:24.427Z,11.00
2017-11-03T17:49:52.712Z,10.90
2017-11-03T17:52:20.683Z,10.90
2017-11-03T17:54:48.239Z,10.90
2017-11-03T17:57:15.750Z,10.80
2017-11-03T17:59:43.359Z,10.70
2017-11-03T18:02:10.866Z,10.60
2017-11-03T18:04:38.395Z,10.60
2017-11-03T18:07:05.899Z,10.60
2017-11-03T18:09:33.485Z,10.60
2017-11-03T18:12:01.050Z,10.50
2017-11-03T18:14:28.562Z,10.50
2017-11-03T18:16:56.519Z,10.50
2017-11-03T18:19:24.078Z,10.50
2017-11-03T18:21:51.595Z,10.50
2017-11-03T18:24:19.102Z,10.40
2017-11-03T18:26:46.815Z,10.40
2017-11-03T18:29:14.678Z,10.30
2017-11-03T18:31:42.257Z,10.20
2017-11-03T18:34:09.808Z,10.20
2017-11-03T18:36:37.355Z,10.20
2017-11-03T18:39:04.867Z,10.20
2017-11-03T18:41:32.442Z,10.10
2017-11-03T18:43:59.951Z,10.00
2017-11-03T18:46:27.470Z,10.00
2017-11-03T18:48:55.752Z,10.00
2017-11-03T18:51:23.283Z,10.00
2017-11-03T18:53:50.853Z,10.00
2017-11-03T18:56:18.383Z,10.00
2017-11-03T18:58:45.953Z,10.00
2017-11-03T19:01:13.487Z,10.00
2017-11-03T19:03:40.998Z,10.00
2017-11-03T19:06:09.288Z,10.00
2017-11-03T19:08:37.527Z,10.00
2017-11-03T19:11:05.042Z,9.90
2017-11-03T19:13:32.543Z,9.90
2017-11-03T19:16:00.058Z,9.80
2017-11-03T19:18:27.561Z,9.80
2017-11-03T19:20:55.115Z,9.80
2017-11-03T19:23:22.671Z,9.80
2017-11-03T19:25:50.172Z,9.80
2017-11-03T19:28:17.735Z,9.70
2017-11-03T19:30:45.244Z,9.70
2017-11-03T19:33:12.767Z,9.70
2017-11-03T19:35:40.323Z,9.70
2017-11-03T19:38:07.900Z,9.60
2017-11-03T19:40:35.450Z,9.60
2017-11-03T19:43:02.987Z,9.60
2017-11-03T19:45:30.504Z,9.50
2017-11-03T19:47:58.088Z,9.50
2017-11-03T19:50:25.659Z,9.50
2017-11-03T19:52:53.251Z,9.50
2017-11-03T19:55:20.758Z,9.50
2017-11-03T19:57:49.097Z,9.50
2017-11-03T20:00:16.665Z,9.50
2017-11-03T20:02:44.298Z,9.50
2017-11-03T20:05:11.798Z,9.40
2017-11-03T20:07:39.319Z,9.50
2017-11-03T20:10:06.823Z,9.40
2017-11-03T20:12:34.371Z,9.40
2017-11-03T20:15:02.022Z,9.40
2017-11-03T20:17:29.580Z,9.30
2017-11-03T20:19:57.868Z,9.20
2017-11-03T20:22:25.388Z,9.20
2017-11-03T20:24:52.908Z,9.30
2017-11-03T20:27:21.184Z,9.30
2017-11-03T20:29:49.476Z,9.30
2017-11-03T20:32:17.036Z,9.30
2017-11-03T20:34:44.607Z,9.30
2017-11-03T20:37:12.160Z,9.30
2017-11-03T20:39:39.679Z,9.30
2017-11-03T20:42:07.183Z,9.20
2017-11-03T20:44:34.771Z,9.20
2017-11-03T20:47:02.431Z,9.20
2017-11-03T20:49:30.039Z,9.20
2017-11-03T20:51:58.363Z,9.20
2017-11-03T20:54:25.895Z,9.20
2017-11-03T20:56:53.399Z,9.20
2017-11-03T20:59:20.975Z,9.10
2017-11-03T21:01:49.247Z,9.00
2017-11-03T21:04:17.590Z,9.00
2017-11-03T21:06:45.167Z,8.90
2017-11-03T21:09:12.819Z,9.00
2017-11-03T21:11:40.383Z,9.00
2017-11-03T21:14:07.954Z,9.00
2017-11-03T21:16:35.907Z,8.90
2017-11-03T21:19:03.474Z,8.90
2017-11-03T21:21:31.179Z,8.90
2017-11-03T21:23:58.738Z,8.90
2017-11-03T21:26:26.263Z,8.90
2017-11-03T21:28:53.759Z,8.80
2017-11-03T21:31:21.375Z,8.90
2017-11-03T21:33:48.883Z,8.90
2017-11-03T21:36:16.458Z,8.80
2017-11-03T21:38:44.019Z,8.80
2017-11-03T21:41:11.585Z,8.80
2017-11-03T21:43:39.083Z,8.80
2017-11-03T21:46:07.371Z,8.80
2017-11-03T21:48:35.646Z,8.80
2017-11-03T21:51:03.982Z,8.80
2017-11-03T21:53:31.490Z,8.80
2017-11-03T21:55:59.014Z,8.80
2017-11-03T21:58:27.455Z,8.70
2017-11-03T22:00:55.039Z,8.70
2017-11-03T22:03:22.547Z,8.70
2017-11-03T22:05:50.607Z,8.60
2017-11-03T22:08:18.907Z,8.50
2017-11-03T22:10:46.419Z,8.50
2017-11-03T22:13:13.954Z,8.60
2017-11-03T22:15:41.459Z,8.50
2017-11-03T22:18:09.747Z,8.50
2017-11-03T22:20:37.255Z,8.50
2017-11-03T22:23:04.782Z,8.50
2017-11-03T22:25:32.322Z,8.50
2017-11-03T22:28:00.254Z,8.50
2017-11-03T22:30:27.755Z,8.50
2017-11-03T22:32:55.307Z,8.50
2017-11-03T22:35:22.819Z,8.40
2017-11-03T22:37:50.386Z,8.30
2017-11-03T22:40:17.941Z,8.30
2017-11-03T22:42:45.515Z,8.40
2017-11-03T22:45:13.782Z,8.30
2017-11-03T22:47:43.253Z,8.30
2017-11-03T22:50:10.754Z,8.30
2017-11-03T22:52:39.100Z,8.30
2017-11-03T22:55:06.624Z,8.30
2017-11-03T22:57:34.130Z,8.30
2017-11-03T23:00:01.689Z,8.40
2017-11-03T23:02:29.195Z,8.40
2017-11-03T23:04:56.714Z,8.40
2017-11-03T23:07:24.219Z,8.40
2017-11-03T23:09:51.734Z,8.30
2017-11-03T23:12:19.323Z,8.30
2017-11-03T23:14:46.846Z,8.30
2017-11-03T23:17:14.355Z,8.40
2017-11-03T23:19:41.876Z,8.30
2017-11-03T23:22:10.149Z,8.20
2017-11-03T23:24:38.435Z,8.20
2017-11-03T23:27:06.699Z,8.20
2017-11-03T23:29:34.986Z,8.10
2017-11-03T23:32:03.254Z,8.00
2017-11-03T23:34:31.556Z,7.90
2017-11-03T23:36:59.058Z,7.90
2017-11-03T23:39:26.595Z,8.00
2017-11-03T23:41:54.100Z,8.10
2017-11-03T23:44:22.376Z,8.10
2017-11-03T23:46:50.675Z,8.00
2017-11-03T23:49:18.175Z,8.00
2017-11-03T23:51:45.795Z,8.00
2017-11-03T23:54:14.003Z,8.10
2017-11-03T23:56:41.518Z,8.10
2017-11-03T23:59:09.786Z,8.20
